sensor_id;sensor_type;location;lat;lon;timestamp;pressure;altitude;pressure_sealevel;temperature;humidity
23303;BME280;11820;48.738;9.092;2023-02-14T00:01:48;98042.41;;;3.48;nan
23303;BME280;11820;48.738;9.092;2023-02-14T00:04:15;98041.59;;;3.48;nan
23303;BME280;11820;48.738;9.092;2023-02-14T00:06:41;98044.44;;;3.43;nan
23303;BME280;11820;48.738;9.092;2023-02-14T00:09:11;98043.66;;;3.43;nan
23303;BME280;11820;48.738;9.092;2023-02-14T00:11:37;98051.81;;;3.48;nan
23303;BME280;11820;48.738;9.092;2023-02-14T00:14:02;98045.50;;;3.41;nan
23303;BME280;11820;48.738;9.092;2023-02-14T00:16:47;98048.47;;;3.35;nan
23303;BME280;11820;48.738;9.092;2023-02-14T00:19:14;98044.38;;;3.45;nan
23303;BME280;11820;48.738;9.092;2023-02-14T00:21:39;98034.38;;;3.29;nan
23303;BME280;11820;48.738;9.092;2023-02-14T00:24:08;98040.00;;;3.22;nan
23303;BME280;11820;48.738;9.092;2023-02-14T00:26:34;98031.81;;;3.29;nan
23303;BME280;11820;48.738;9.092;2023-02-14T00:29:03;98024.59;;;3.23;nan
23303;BME280;11820;48.738;9.092;2023-02-14T00:31:28;98028.56;;;3.27;nan
23303;BME280;11820;48.738;9.092;2023-02-14T00:33:53;98032.72;;;3.41;nan
23303;BME280;11820;48.738;9.092;2023-02-14T00:36:19;98027.34;;;3.56;nan
23303;BME280;11820;48.738;9.092;2023-02-14T00:38:44;98035.59;;;3.36;nan
23303;BME280;11820;48.738;9.092;2023-02-14T00:41:10;98029.53;;;3.37;nan
23303;BME280;11820;48.738;9.092;2023-02-14T00:43:46;98039.81;;;3.00;nan
23303;BME280;11820;48.738;9.092;2023-02-14T00:46:12;98031.66;;;2.95;nan
23303;BME280;11820;48.738;9.092;2023-02-14T00:48:38;98034.69;;;3.13;nan
23303;BME280;11820;48.738;9.092;2023-02-14T00:51:03;98030.28;;;3.27;nan
23303;BME280;11820;48.738;9.092;2023-02-14T00:53:28;98035.09;;;3.31;nan
23303;BME280;11820;48.738;9.092;2023-02-14T00:55:54;98030.41;;;3.25;nan
23303;BME280;11820;48.738;9.092;2023-02-14T00:58:19;98033.38;;;3.32;nan
23303;BME280;11820;48.738;9.092;2023-02-14T01:00:44;98032.31;;;3.34;nan
23303;BME280;11820;48.738;9.092;2023-02-14T01:03:10;98045.94;;;3.35;nan
23303;BME280;11820;48.738;9.092;2023-02-14T01:05:35;98045.41;;;3.30;nan
23303;BME280;11820;48.738;9.092;2023-02-14T01:08:00;98046.13;;;3.32;nan
23303;BME280;11820;48.738;9.092;2023-02-14T01:10:26;98038.50;;;3.19;nan
23303;BME280;11820;48.738;9.092;2023-02-14T01:12:51;98039.00;;;3.24;nan
23303;BME280;11820;48.738;9.092;2023-02-14T01:15:16;98032.66;;;3.17;nan
23303;BME280;11820;48.738;9.092;2023-02-14T01:17:42;98041.66;;;3.11;nan
23303;BME280;11820;48.738;9.092;2023-02-14T01:20:08;98041.88;;;2.95;nan
23303;BME280;11820;48.738;9.092;2023-02-14T01:22:35;98050.75;;;2.90;nan
23303;BME280;11820;48.738;9.092;2023-02-14T01:25:00;98046.06;;;2.96;nan
23303;BME280;11820;48.738;9.092;2023-02-14T01:27:26;98034.72;;;2.88;nan
23303;BME280;11820;48.738;9.092;2023-02-14T01:29:51;98042.59;;;2.97;nan
23303;BME280;11820;48.738;9.092;2023-02-14T01:32:16;98044.53;;;2.94;nan
23303;BME280;11820;48.738;9.092;2023-02-14T01:34:41;98037.19;;;2.89;nan
23303;BME280;11820;48.738;9.092;2023-02-14T01:37:07;98034.41;;;2.92;nan
23303;BME280;11820;48.738;9.092;2023-02-14T01:39:32;98027.38;;;2.96;nan
23303;BME280;11820;48.738;9.092;2023-02-14T01:41:57;98031.88;;;2.80;nan
23303;BME280;11820;48.738;9.092;2023-02-14T01:46:59;98032.06;;;2.77;nan
23303;BME280;11820;48.738;9.092;2023-02-14T01:49:29;98024.84;;;2.71;nan
23303;BME280;11820;48.738;9.092;2023-02-14T01:52:18;98031.88;;;2.92;nan
23303;BME280;11820;48.738;9.092;2023-02-14T01:54:51;98034.34;;;2.81;nan
23303;BME280;11820;48.738;9.092;2023-02-14T01:57:20;98035.03;;;2.83;nan
23303;BME280;11820;48.738;9.092;2023-02-14T01:59:50;98031.03;;;2.79;nan
23303;BME280;11820;48.738;9.092;2023-02-14T02:02:17;98024.50;;;2.88;nan
23303;BME280;11820;48.738;9.092;2023-02-14T02:04:49;98023.50;;;2.90;nan
23303;BME280;11820;48.738;9.092;2023-02-14T02:07:18;98023.19;;;2.82;nan
23303;BME280;11820;48.738;9.092;2023-02-14T02:09:49;98025.41;;;2.87;nan
23303;BME280;11820;48.738;9.092;2023-02-14T02:12:15;98026.03;;;2.90;nan
23303;BME280;11820;48.738;9.092;2023-02-14T02:14:41;98027.88;;;2.88;nan
23303;BME280;11820;48.738;9.092;2023-02-14T02:20:48;98024.69;;;2.97;nan
23303;BME280;11820;48.738;9.092;2023-02-14T02:29:16;98028.88;;;3.11;nan
23303;BME280;11820;48.738;9.092;2023-02-14T02:43:28;98006.41;;;3.03;nan
23303;BME280;11820;48.738;9.092;2023-02-14T02:46:02;98013.56;;;3.11;nan
23303;BME280;11820;48.738;9.092;2023-02-14T02:51:26;98011.41;;;3.05;nan
23303;BME280;11820;48.738;9.092;2023-02-14T02:54:21;98011.00;;;3.11;nan
23303;BME280;11820;48.738;9.092;2023-02-14T02:56:55;98010.22;;;2.98;nan
23303;BME280;11820;48.738;9.092;2023-02-14T03:01:51;98016.44;;;2.94;nan
23303;BME280;11820;48.738;9.092;2023-02-14T03:04:19;98008.56;;;2.97;nan
23303;BME280;11820;48.738;9.092;2023-02-14T03:07:04;98007.03;;;3.07;nan
23303;BME280;11820;48.738;9.092;2023-02-14T03:18:07;98008.25;;;2.89;nan
23303;BME280;11820;48.738;9.092;2023-02-14T03:21:17;98015.72;;;2.92;nan
23303;BME280;11820;48.738;9.092;2023-02-14T03:24:10;98016.44;;;2.94;nan
23303;BME280;11820;48.738;9.092;2023-02-14T03:29:26;98016.75;;;3.02;nan
23303;BME280;11820;48.738;9.092;2023-02-14T03:32:05;98022.06;;;2.74;nan
23303;BME280;11820;48.738;9.092;2023-02-14T03:34:44;98026.56;;;2.70;nan
23303;BME280;11820;48.738;9.092;2023-02-14T03:37:34;98024.41;;;2.77;nan
23303;BME280;11820;48.738;9.092;2023-02-14T03:40:12;98022.66;;;2.77;nan
23303;BME280;11820;48.738;9.092;2023-02-14T03:42:43;98023.50;;;2.78;nan
23303;BME280;11820;48.738;9.092;2023-02-14T03:45:14;98023.28;;;2.68;nan
23303;BME280;11820;48.738;9.092;2023-02-14T03:47:42;98020.81;;;2.67;nan
23303;BME280;11820;48.738;9.092;2023-02-14T03:52:39;98021.94;;;2.63;nan
23303;BME280;11820;48.738;9.092;2023-02-14T03:55:07;98016.75;;;2.52;nan
23303;BME280;11820;48.738;9.092;2023-02-14T03:58:20;98014.69;;;2.57;nan
23303;BME280;11820;48.738;9.092;2023-02-14T04:00:49;98017.25;;;2.57;nan
23303;BME280;11820;48.738;9.092;2023-02-14T04:03:17;98010.81;;;2.51;nan
23303;BME280;11820;48.738;9.092;2023-02-14T04:05:45;98010.50;;;2.56;nan
23303;BME280;11820;48.738;9.092;2023-02-14T04:08:20;98003.06;;;2.53;nan
23303;BME280;11820;48.738;9.092;2023-02-14T04:10:46;98004.69;;;2.54;nan
23303;BME280;11820;48.738;9.092;2023-02-14T04:13:11;98007.34;;;2.52;nan
23303;BME280;11820;48.738;9.092;2023-02-14T04:15:37;98014.97;;;2.40;nan
23303;BME280;11820;48.738;9.092;2023-02-14T04:18:02;98011.44;;;2.42;nan
23303;BME280;11820;48.738;9.092;2023-02-14T04:20:46;98003.47;;;2.47;nan
23303;BME280;11820;48.738;9.092;2023-02-14T04:23:11;98004.69;;;2.41;nan
23303;BME280;11820;48.738;9.092;2023-02-14T04:25:37;98009.69;;;2.43;nan
23303;BME280;11820;48.738;9.092;2023-02-14T04:28:05;98006.31;;;2.42;nan
23303;BME280;11820;48.738;9.092;2023-02-14T04:30:30;98004.28;;;2.47;nan
23303;BME280;11820;48.738;9.092;2023-02-14T04:32:56;98013.88;;;2.44;nan
23303;BME280;11820;48.738;9.092;2023-02-14T04:35:21;98003.28;;;2.50;nan
23303;BME280;11820;48.738;9.092;2023-02-14T04:37:46;98001.00;;;2.45;nan
23303;BME280;11820;48.738;9.092;2023-02-14T04:40:12;98006.09;;;2.33;nan
23303;BME280;11820;48.738;9.092;2023-02-14T04:42:41;98001.91;;;2.32;nan
23303;BME280;11820;48.738;9.092;2023-02-14T04:45:06;98002.22;;;2.40;nan
23303;BME280;11820;48.738;9.092;2023-02-14T04:47:32;98007.44;;;2.38;nan
23303;BME280;11820;48.738;9.092;2023-02-14T04:49:57;98006.72;;;2.36;nan
23303;BME280;11820;48.738;9.092;2023-02-14T04:52:22;98004.06;;;2.38;nan
23303;BME280;11820;48.738;9.092;2023-02-14T04:54:47;98004.59;;;2.30;nan
23303;BME280;11820;48.738;9.092;2023-02-14T04:57:13;97998.81;;;2.14;nan
23303;BME280;11820;48.738;9.092;2023-02-14T04:59:38;97993.53;;;2.30;nan
23303;BME280;11820;48.738;9.092;2023-02-14T05:02:03;97993.25;;;2.34;nan
23303;BME280;11820;48.738;9.092;2023-02-14T05:04:29;97994.69;;;2.38;nan
23303;BME280;11820;48.738;9.092;2023-02-14T05:06:54;97999.78;;;2.26;nan
23303;BME280;11820;48.738;9.092;2023-02-14T05:09:19;97997.94;;;2.28;nan
23303;BME280;11820;48.738;9.092;2023-02-14T05:11:45;98000.97;;;2.20;nan
23303;BME280;11820;48.738;9.092;2023-02-14T05:14:10;98002.81;;;2.18;nan
23303;BME280;11820;48.738;9.092;2023-02-14T05:16:36;98006.09;;;2.33;nan
23303;BME280;11820;48.738;9.092;2023-02-14T05:19:03;98004.34;;;2.21;nan
23303;BME280;11820;48.738;9.092;2023-02-14T05:21:29;98005.06;;;2.23;nan
23303;BME280;11820;48.738;9.092;2023-02-14T05:24:00;97996.81;;;2.32;nan
23303;BME280;11820;48.738;9.092;2023-02-14T05:26:26;97995.25;;;2.29;nan
23303;BME280;11820;48.738;9.092;2023-02-14T05:28:51;97997.63;;;2.20;nan
23303;BME280;11820;48.738;9.092;2023-02-14T05:31:16;98005.06;;;2.23;nan
23303;BME280;11820;48.738;9.092;2023-02-14T05:33:42;97998.53;;;2.19;nan
23303;BME280;11820;48.738;9.092;2023-02-14T05:36:09;98008.53;;;2.22;nan
23303;BME280;11820;48.738;9.092;2023-02-14T05:38:34;98003.22;;;2.12;nan
23303;BME280;11820;48.738;9.092;2023-02-14T05:41:00;98002.06;;;2.04;nan
23303;BME280;11820;48.738;9.092;2023-02-14T05:43:25;98003.50;;;2.08;nan
23303;BME280;11820;48.738;9.092;2023-02-14T05:45:51;98003.41;;;2.09;nan
23303;BME280;11820;48.738;9.092;2023-02-14T05:48:18;98004.56;;;2.18;nan
23303;BME280;11820;48.738;9.092;2023-02-14T05:50:43;98004.44;;;2.19;nan
23303;BME280;11820;48.738;9.092;2023-02-14T05:53:10;98008.31;;;2.12;nan
23303;BME280;11820;48.738;9.092;2023-02-14T05:55:35;98017.31;;;2.18;nan
23303;BME280;11820;48.738;9.092;2023-02-14T05:58:00;98009.34;;;2.22;nan
23303;BME280;11820;48.738;9.092;2023-02-14T06:00:26;98010.94;;;2.11;nan
23303;BME280;11820;48.738;9.092;2023-02-14T06:02:52;98011.31;;;2.19;nan
23303;BME280;11820;48.738;9.092;2023-02-14T06:05:17;98011.38;;;2.17;nan
23303;BME280;11820;48.738;9.092;2023-02-14T06:07:44;98008.53;;;2.22;nan
23303;BME280;11820;48.738;9.092;2023-02-14T06:10:18;98005.06;;;2.23;nan
23303;BME280;11820;48.738;9.092;2023-02-14T06:12:45;98008.19;;;2.14;nan
23303;BME280;11820;48.738;9.092;2023-02-14T06:15:10;98010.94;;;2.11;nan
23303;BME280;11820;48.738;9.092;2023-02-14T06:17:36;98015.28;;;2.23;nan
23303;BME280;11820;48.738;9.092;2023-02-14T06:20:01;98016.72;;;2.27;nan
23303;BME280;11820;48.738;9.092;2023-02-14T06:22:27;98014.41;;;2.10;nan
23303;BME280;11820;48.738;9.092;2023-02-14T06:24:52;98020.56;;;2.07;nan
23303;BME280;11820;48.738;9.092;2023-02-14T06:27:17;98021.34;;;2.08;nan
23303;BME280;11820;48.738;9.092;2023-02-14T06:29:43;98029.72;;;2.10;nan
23303;BME280;11820;48.738;9.092;2023-02-14T06:32:08;98035.13;;;2.05;nan
23303;BME280;11820;48.738;9.092;2023-02-14T06:34:33;98033.31;;;2.07;nan
23303;BME280;11820;48.738;9.092;2023-02-14T06:36:59;98020.44;;;2.09;nan
23303;BME280;11820;48.738;9.092;2023-02-14T06:39:24;98029.25;;;1.91;nan
23303;BME280;11820;48.738;9.092;2023-02-14T06:41:50;98024.19;;;2.03;nan
23303;BME280;11820;48.738;9.092;2023-02-14T06:44:15;98026.25;;;2.11;nan
23303;BME280;11820;48.738;9.092;2023-02-14T06:46:40;98023.72;;;2.11;nan
23303;BME280;11820;48.738;9.092;2023-02-14T06:49:06;98026.25;;;2.11;nan
23303;BME280;11820;48.738;9.092;2023-02-14T06:51:31;98028.31;;;2.18;nan
23303;BME280;11820;48.738;9.092;2023-02-14T06:53:56;98022.22;;;2.21;nan
23303;BME280;11820;48.738;9.092;2023-02-14T06:56:22;98019.56;;;2.22;nan
23303;BME280;11820;48.738;9.092;2023-02-14T06:58:47;98018.53;;;2.25;nan
23303;BME280;11820;48.738;9.092;2023-02-14T07:01:12;98025.00;;;2.30;nan
23303;BME280;11820;48.738;9.092;2023-02-14T07:03:37;98017.13;;;2.21;nan
23303;BME280;11820;48.738;9.092;2023-02-14T07:06:03;98020.13;;;2.01;nan
23303;BME280;11820;48.738;9.092;2023-02-14T07:08:29;98022.00;;;2.24;nan
23303;BME280;11820;48.738;9.092;2023-02-14T07:10:55;98017.34;;;2.30;nan
23303;BME280;11820;48.738;9.092;2023-02-14T07:13:21;98012.84;;;2.34;nan
23303;BME280;11820;48.738;9.092;2023-02-14T07:15:46;98004.66;;;2.29;nan
23303;BME280;11820;48.738;9.092;2023-02-14T07:18:11;98000.59;;;2.39;nan
23303;BME280;11820;48.738;9.092;2023-02-14T07:20:37;98006.50;;;2.27;nan
23303;BME280;11820;48.738;9.092;2023-02-14T07:23:02;98005.88;;;2.23;nan
23303;BME280;11820;48.738;9.092;2023-02-14T07:25:28;98014.06;;;2.41;nan
23303;BME280;11820;48.738;9.092;2023-02-14T07:27:53;98014.28;;;2.50;nan
23303;BME280;11820;48.738;9.092;2023-02-14T07:30:19;98013.47;;;2.50;nan
23303;BME280;11820;48.738;9.092;2023-02-14T07:32:44;98005.41;;;2.56;nan
23303;BME280;11820;48.738;9.092;2023-02-14T07:35:10;98003.06;;;2.53;nan
23303;BME280;11820;48.738;9.092;2023-02-14T07:37:35;98009.19;;;2.63;nan
23303;BME280;11820;48.738;9.092;2023-02-14T07:40:00;98005.50;;;2.67;nan
23303;BME280;11820;48.738;9.092;2023-02-14T07:42:26;98011.94;;;2.72;nan
23303;BME280;11820;48.738;9.092;2023-02-14T07:44:52;98004.06;;;2.75;nan
23303;BME280;11820;48.738;9.092;2023-02-14T07:47:17;98013.16;;;2.79;nan
23303;BME280;11820;48.738;9.092;2023-02-14T07:49:42;98014.09;;;2.78;nan
23303;BME280;11820;48.738;9.092;2023-02-14T07:52:08;98008.25;;;2.89;nan
23303;BME280;11820;48.738;9.092;2023-02-14T07:54:33;98013.69;;;2.97;nan
23303;BME280;11820;48.738;9.092;2023-02-14T07:56:59;98015.09;;;3.01;nan
23303;BME280;11820;48.738;9.092;2023-02-14T07:59:24;98015.09;;;3.13;nan
23303;BME280;11820;48.738;9.092;2023-02-14T08:01:50;98012.94;;;3.19;nan
23303;BME280;11820;48.738;9.092;2023-02-14T08:04:15;98007.19;;;3.28;nan
23303;BME280;11820;48.738;9.092;2023-02-14T08:06:41;98006.44;;;3.39;nan
23303;BME280;11820;48.738;9.092;2023-02-14T08:09:07;97997.72;;;3.41;nan
23303;BME280;11820;48.738;9.092;2023-02-14T08:11:36;97995.13;;;3.54;nan
23303;BME280;11820;48.738;9.092;2023-02-14T08:14:21;97996.53;;;3.70;nan
23303;BME280;11820;48.738;9.092;2023-02-14T08:16:46;97987.72;;;3.74;nan
23303;BME280;11820;48.738;9.092;2023-02-14T08:19:11;97980.91;;;3.86;nan
23303;BME280;11820;48.738;9.092;2023-02-14T08:21:37;97989.84;;;3.91;nan
23303;BME280;11820;48.738;9.092;2023-02-14T08:24:02;97987.69;;;3.98;nan
23303;BME280;11820;48.738;9.092;2023-02-14T08:26:28;97991.56;;;4.03;nan
23303;BME280;11820;48.738;9.092;2023-02-14T08:28:53;97984.03;;;4.13;nan
23303;BME280;11820;48.738;9.092;2023-02-14T08:31:26;97989.53;;;4.30;nan
23303;BME280;11820;48.738;9.092;2023-02-14T08:33:52;97984.28;;;4.32;nan
23303;BME280;11820;48.738;9.092;2023-02-14T08:36:18;97985.28;;;4.42;nan
23303;BME280;11820;48.738;9.092;2023-02-14T08:38:44;97985.03;;;4.45;nan
23303;BME280;11820;48.738;9.092;2023-02-14T08:41:12;97990.06;;;4.57;nan
23303;BME280;11820;48.738;9.092;2023-02-14T08:43:37;97993.66;;;4.55;nan
23303;BME280;11820;48.738;9.092;2023-02-14T08:46:03;97993.09;;;4.51;nan
23303;BME280;11820;48.738;9.092;2023-02-14T08:48:28;97991.25;;;4.64;nan
23303;BME280;11820;48.738;9.092;2023-02-14T08:50:54;97983.31;;;4.67;nan
23303;BME280;11820;48.738;9.092;2023-02-14T08:53:19;97981.00;;;4.64;nan
23303;BME280;11820;48.738;9.092;2023-02-14T08:55:46;97985.88;;;4.67;nan
23303;BME280;11820;48.738;9.092;2023-02-14T08:58:12;97981.25;;;4.83;nan
23303;BME280;11820;48.738;9.092;2023-02-14T09:00:37;97981.47;;;4.91;nan
23303;BME280;11820;48.738;9.092;2023-02-14T09:03:03;97986.38;;;5.05;nan
23303;BME280;11820;48.738;9.092;2023-02-14T09:05:29;97988.94;;;5.16;nan
23303;BME280;11820;48.738;9.092;2023-02-14T09:07:54;97979.63;;;5.26;nan
23303;BME280;11820;48.738;9.092;2023-02-14T09:10:20;97983.78;;;5.38;nan
23303;BME280;11820;48.738;9.092;2023-02-14T09:12:46;97984.22;;;5.43;nan
23303;BME280;11820;48.738;9.092;2023-02-14T09:15:11;97979.13;;;5.32;nan
23303;BME280;11820;48.738;9.092;2023-02-14T09:17:37;97978.75;;;5.47;nan
23303;BME280;11820;48.738;9.092;2023-02-14T09:20:04;97979.75;;;5.67;nan
23303;BME280;11820;48.738;9.092;2023-02-14T09:22:32;97978.38;;;5.63;nan
23303;BME280;11820;48.738;9.092;2023-02-14T09:24:57;97974.66;;;5.56;nan
23303;BME280;11820;48.738;9.092;2023-02-14T09:27:23;97975.72;;;5.96;nan
23303;BME280;11820;48.738;9.092;2023-02-14T09:29:48;97968.16;;;5.94;nan
23303;BME280;11820;48.738;9.092;2023-02-14T09:32:14;97960.63;;;6.02;nan
23303;BME280;11820;48.738;9.092;2023-02-14T09:34:39;97965.66;;;6.24;nan
23303;BME280;11820;48.738;9.092;2023-02-14T09:37:05;97971.09;;;6.10;nan
23303;BME280;11820;48.738;9.092;2023-02-14T09:39:30;97960.16;;;6.29;nan
23303;BME280;11820;48.738;9.092;2023-02-14T09:44:47;97956.06;;;6.46;nan
23303;BME280;11820;48.738;9.092;2023-02-14T09:52:42;97950.88;;;6.87;nan
23303;BME280;11820;48.738;9.092;2023-02-14T09:55:14;97947.94;;;7.01;nan
23303;BME280;11820;48.738;9.092;2023-02-14T10:00:55;97936.44;;;7.35;nan
23303;BME280;11820;48.738;9.092;2023-02-14T10:03:36;97941.88;;;7.61;nan
23303;BME280;11820;48.738;9.092;2023-02-14T10:11:28;97931.88;;;7.96;nan
23303;BME280;11820;48.738;9.092;2023-02-14T10:14:13;97926.56;;;8.16;nan
23303;BME280;11820;48.738;9.092;2023-02-14T10:16:48;97938.13;;;8.31;nan
23303;BME280;11820;48.738;9.092;2023-02-14T10:19:21;97933.50;;;8.25;nan
23303;BME280;11820;48.738;9.092;2023-02-14T10:21:52;97930.34;;;8.50;nan
23303;BME280;11820;48.738;9.092;2023-02-14T10:24:48;97932.88;;;8.69;nan
23303;BME280;11820;48.738;9.092;2023-02-14T10:27:33;97922.13;;;9.10;nan
23303;BME280;11820;48.738;9.092;2023-02-14T10:30:01;97924.69;;;9.37;nan
23303;BME280;11820;48.738;9.092;2023-02-14T10:32:34;97923.75;;;9.38;nan
23303;BME280;11820;48.738;9.092;2023-02-14T10:35:05;97919.63;;;9.79;nan
23303;BME280;11820;48.738;9.092;2023-02-14T10:37:57;97903.63;;;10.87;nan
23303;BME280;11820;48.738;9.092;2023-02-14T10:43:35;97875.25;;;22.41;nan
23303;BME280;11820;48.738;9.092;2023-02-14T10:51:48;97857.91;;;25.12;nan
23303;BME280;11820;48.738;9.092;2023-02-14T10:54:41;97871.34;;;22.55;nan
23303;BME280;11820;48.738;9.092;2023-02-14T10:57:18;97876.50;;;21.03;nan
23303;BME280;11820;48.738;9.092;2023-02-14T10:59:59;97867.03;;;19.36;nan
23303;BME280;11820;48.738;9.092;2023-02-14T11:02:30;97857.91;;;19.38;nan
23303;BME280;11820;48.738;9.092;2023-02-14T11:04:58;97861.25;;;19.08;nan
23303;BME280;11820;48.738;9.092;2023-02-14T11:07:24;97873.81;;;17.89;nan
23303;BME280;11820;48.738;9.092;2023-02-14T11:09:50;97856.50;;;18.79;nan
23303;BME280;11820;48.738;9.092;2023-02-14T11:12:35;97856.06;;;18.82;nan
23303;BME280;11820;48.738;9.092;2023-02-14T11:17:34;97854.44;;;17.64;nan
23303;BME280;11820;48.738;9.092;2023-02-14T11:20:13;97849.69;;;18.52;nan
23303;BME280;11820;48.738;9.092;2023-02-14T11:22:46;97835.97;;;19.64;nan
23303;BME280;11820;48.738;9.092;2023-02-14T11:25:22;97825.50;;;23.29;nan
23303;BME280;11820;48.738;9.092;2023-02-14T11:27:51;97822.75;;;25.65;nan
23303;BME280;11820;48.738;9.092;2023-02-14T11:30:27;97814.09;;;27.10;nan
23303;BME280;11820;48.738;9.092;2023-02-14T11:32:54;97813.09;;;29.20;nan
23303;BME280;11820;48.738;9.092;2023-02-14T11:35:21;97809.69;;;30.40;nan
23303;BME280;11820;48.738;9.092;2023-02-14T11:37:53;97795.81;;;31.55;nan
23303;BME280;11820;48.738;9.092;2023-02-14T11:40:38;97802.31;;;31.07;nan
23303;BME280;11820;48.738;9.092;2023-02-14T11:45:38;97793.91;;;30.38;nan
23303;BME280;11820;48.738;9.092;2023-02-14T11:48:20;97793.81;;;31.84;nan
23303;BME280;11820;48.738;9.092;2023-02-14T11:51:12;97780.69;;;33.19;nan
23303;BME280;11820;48.738;9.092;2023-02-14T11:53:45;97789.16;;;31.34;nan
23303;BME280;11820;48.738;9.092;2023-02-14T11:56:13;97789.72;;;32.69;nan
23303;BME280;11820;48.738;9.092;2023-02-14T12:01:26;97787.84;;;29.95;nan
23303;BME280;11820;48.738;9.092;2023-02-14T12:03:58;97795.03;;;26.04;nan
23303;BME280;11820;48.738;9.092;2023-02-14T12:06:27;97798.88;;;23.75;nan
23303;BME280;11820;48.738;9.092;2023-02-14T12:11:38;97782.16;;;25.86;nan
23303;BME280;11820;48.738;9.092;2023-02-14T12:14:03;97776.16;;;30.24;nan
23303;BME280;11820;48.738;9.092;2023-02-14T12:16:47;97781.78;;;26.81;nan
23303;BME280;11820;48.738;9.092;2023-02-14T12:19:27;97787.41;;;23.25;nan
23303;BME280;11820;48.738;9.092;2023-02-14T12:22:03;97794.56;;;20.81;nan
23303;BME280;11820;48.738;9.092;2023-02-14T12:24:53;97794.56;;;21.46;nan
23303;BME280;11820;48.738;9.092;2023-02-14T12:27:20;97780.59;;;20.63;nan
23303;BME280;11820;48.738;9.092;2023-02-14T12:29:51;97791.88;;;19.78;nan
23303;BME280;11820;48.738;9.092;2023-02-14T12:32:20;97787.75;;;19.58;nan
23303;BME280;11820;48.738;9.092;2023-02-14T12:34:46;97787.81;;;18.31;nan
23303;BME280;11820;48.738;9.092;2023-02-14T12:40:21;97776.13;;;19.04;nan
23303;BME280;11820;48.738;9.092;2023-02-14T12:48:37;97772.72;;;18.07;nan
23303;BME280;11820;48.738;9.092;2023-02-14T12:51:34;97771.28;;;19.01;nan
23303;BME280;11820;48.738;9.092;2023-02-14T13:01:58;97756.72;;;19.18;nan
23303;BME280;11820;48.738;9.092;2023-02-14T13:10:10;97749.22;;;18.71;nan
23303;BME280;11820;48.738;9.092;2023-02-14T13:15:12;97743.16;;;17.81;nan
23303;BME280;11820;48.738;9.092;2023-02-14T13:17:59;97745.75;;;17.55;nan
23303;BME280;11820;48.738;9.092;2023-02-14T13:20:36;97742.53;;;17.73;nan
23303;BME280;11820;48.738;9.092;2023-02-14T13:23:09;97733.88;;;17.66;nan
23303;BME280;11820;48.738;9.092;2023-02-14T13:25:38;97734.47;;;17.55;nan
23303;BME280;11820;48.738;9.092;2023-02-14T13:28:11;97735.50;;;17.67;nan
23303;BME280;11820;48.738;9.092;2023-02-14T13:30:37;97730.47;;;17.52;nan
23303;BME280;11820;48.738;9.092;2023-02-14T13:33:08;97731.84;;;17.87;nan
23303;BME280;11820;48.738;9.092;2023-02-14T13:35:39;97737.91;;;17.75;nan
23303;BME280;11820;48.738;9.092;2023-02-14T13:38:06;97729.63;;;18.10;nan
23303;BME280;11820;48.738;9.092;2023-02-14T13:40:33;97726.44;;;17.63;nan
23303;BME280;11820;48.738;9.092;2023-02-14T13:43:00;97725.41;;;17.44;nan
23303;BME280;11820;48.738;9.092;2023-02-14T13:48:20;97722.78;;;17.70;nan
23303;BME280;11820;48.738;9.092;2023-02-14T13:50:58;97729.22;;;17.35;nan
23303;BME280;11820;48.738;9.092;2023-02-14T13:53:45;97725.34;;;17.18;nan
23303;BME280;11820;48.738;9.092;2023-02-14T13:58:52;97719.59;;;17.75;nan
23303;BME280;11820;48.738;9.092;2023-02-14T14:01:40;97717.75;;;17.82;nan
23303;BME280;11820;48.738;9.092;2023-02-14T14:15:09;97706.41;;;18.20;nan
23303;BME280;11820;48.738;9.092;2023-02-14T14:17:48;97705.47;;;18.01;nan
23303;BME280;11820;48.738;9.092;2023-02-14T14:20:46;97713.56;;;17.74;nan
23303;BME280;11820;48.738;9.092;2023-02-14T14:23:34;97700.97;;;18.41;nan
23303;BME280;11820;48.738;9.092;2023-02-14T14:26:01;97705.09;;;17.79;nan
23303;BME280;11820;48.738;9.092;2023-02-14T14:28:30;97711.34;;;17.65;nan
23303;BME280;11820;48.738;9.092;2023-02-14T14:30:56;97708.91;;;17.44;nan
23303;BME280;11820;48.738;9.092;2023-02-14T14:33:33;97711.03;;;17.08;nan
23303;BME280;11820;48.738;9.092;2023-02-14T14:36:06;97712.94;;;16.67;nan
23303;BME280;11820;48.738;9.092;2023-02-14T14:38:34;97705.69;;;16.62;nan
23303;BME280;11820;48.738;9.092;2023-02-14T14:41:09;97711.19;;;16.80;nan
23303;BME280;11820;48.738;9.092;2023-02-14T14:43:37;97712.22;;;16.99;nan
23303;BME280;11820;48.738;9.092;2023-02-14T14:46:07;97707.34;;;16.76;nan
23303;BME280;11820;48.738;9.092;2023-02-14T14:48:39;97707.50;;;16.68;nan
23303;BME280;11820;48.738;9.092;2023-02-14T14:51:07;97709.97;;;16.76;nan
23303;BME280;11820;48.738;9.092;2023-02-14T14:53:44;97703.28;;;16.67;nan
23303;BME280;11820;48.738;9.092;2023-02-14T14:56:16;97691.41;;;17.44;nan
23303;BME280;11820;48.738;9.092;2023-02-14T14:58:43;97696.44;;;17.59;nan
23303;BME280;11820;48.738;9.092;2023-02-14T15:04:18;97697.44;;;17.38;nan
23303;BME280;11820;48.738;9.092;2023-02-14T15:06:45;97702.22;;;17.15;nan
23303;BME280;11820;48.738;9.092;2023-02-14T15:09:14;97701.19;;;17.03;nan
23303;BME280;11820;48.738;9.092;2023-02-14T15:11:40;97698.13;;;16.87;nan
23303;BME280;11820;48.738;9.092;2023-02-14T15:14:26;97699.25;;;16.25;nan
23303;BME280;11820;48.738;9.092;2023-02-14T15:16:56;97704.56;;;16.04;nan
23303;BME280;11820;48.738;9.092;2023-02-14T15:19:33;97704.56;;;16.04;nan
23303;BME280;11820;48.738;9.092;2023-02-14T15:22:06;97699.66;;;16.22;nan
23303;BME280;11820;48.738;9.092;2023-02-14T15:24:41;97692.19;;;16.19;nan
23303;BME280;11820;48.738;9.092;2023-02-14T15:27:14;97696.34;;;16.07;nan
23303;BME280;11820;48.738;9.092;2023-02-14T15:29:39;97703.06;;;14.98;nan
23303;BME280;11820;48.738;9.092;2023-02-14T15:32:08;97702.16;;;13.83;nan
23303;BME280;11820;48.738;9.092;2023-02-14T15:34:34;97713.38;;;12.80;nan
23303;BME280;11820;48.738;9.092;2023-02-14T15:37:00;97704.22;;;12.92;nan
23303;BME280;11820;48.738;9.092;2023-02-14T15:39:39;97707.38;;;12.49;nan
23303;BME280;11820;48.738;9.092;2023-02-14T15:42:22;97708.50;;;12.08;nan
23303;BME280;11820;48.738;9.092;2023-02-14T15:44:57;97706.00;;;11.76;nan
23303;BME280;11820;48.738;9.092;2023-02-14T15:47:35;97709.41;;;11.76;nan